Crescent, Texas
Current Conditions -  °F | °C
As of 2:15 AM on Thursday 18 Dec 2014 (Local Time) from KARM Reporting Station
NA  
Wind Chill: 61°   Ceiling: NA
Heat Index: 61°   Visibility: NA
Dew Point: 60°   Wind: 3mph
Humidity: 97%   Direction: 320°NW
Pressure: 30.06"   Gusts: NA
Location:  29.2926°N, 96.034°W
Report Text: KARM 180815Z AUTO 32003KT 16/16 A3006 RMK AO2 T01630158 PWINO
Loading
Personal Weather Stations






























Interactive Weather Map New forecast layout! Learn more

10-Day Weather Forecast

Advertisements
Track Severe Weather on mobile